Saturday, December 15, 2018, 10:33 PM EST
Back to Local

KBED, Bedford Hanscom Field

Location: Concord, MA, United States Lat: 42.467
Local Time: 10:33 PM EST ( 3:33 GMT) Lon: -71.3
Time Zone: US/Eastern Elev: 134 ft

Show me the last for .
Show Coded

Time T Td Feel RH Dir Speed Gust Alt SLP Vis Weather Sky Remarks
2018-12-15 21:56 36 27 31 69 10° 6 - 30.25 30.29 10 BKN200 None
2018-12-15 20:56 39 29 35 66 40° 6 - 30.24 30.28 10 BKN200 None
2018-12-15 19:56 42 31 38 64 70° 6 - 30.23 30.27 10 BKN200 None
2018-12-15 18:56 44 31 40 59 30° 8 - 30.18 30.22 10 OVC200 6-hr Min Temp (7pm): 44.1°F
6-hr Max Temp (7pm): 55.9°F
2018-12-15 17:56 46 32 41 57 30° 12 - 30.18 30.23 10 OVC200 None
2018-12-15 16:56 48 33 44 56 10° 9 - 30.17 30.21 10 SCT060 OVC200 None
2018-12-15 15:56 50 34 46 53 10° 9 - 30.15 30.19 10 SCT060 OVC200 None
2018-12-15 14:56 53 34 - 48 350° 8 - 30.14 30.18 10 CLR None
2018-12-15 13:56 54 35 - 48 340° 5 - 30.13 30.17 10 OVC080 None
2018-12-15 12:56 56 36 - 46 320° 7 - 30.12 30.16 10 SCT065 BKN200 6-hr Min Temp (1pm): 46.9°F
6-hr Max Temp (1pm): 55.9°F
2018-12-15 11:56 54 42 - 64 250° 6 - 30.13 30.17 10 FEW065 BKN200 None
2018-12-15 10:56 52 43 - 71 240° 5 - 30.16 30.20 10 SCT065 BKN200 None
2018-12-15 09:56 50 44 48 79 220° 6 - 30.18 30.22 10 BKN065 None
2018-12-15 08:56 48 44 47 86 250° 3 - 30.18 30.22 10 OVC065 None
2018-12-15 07:56 48 43 45 82 210° 7 - 30.17 30.21 10 OVC044 None
2018-12-15 06:56 47 42 45 83 220° 5 - 30.16 30.20 10 OVC046 6-hr Min Temp (7am): 45.0°F
6-hr Max Temp (7am): 48.0°F
2018-12-15 05:56 46 41 45 82 220° 3 - 30.15 30.19 10 BR BKN047 OVC060 None
2018-12-15 04:56 46 41 43 82 230° 6 - 30.14 30.18 10 BR BKN050 None
2018-12-15 03:56 47 42 44 83 220° 6 - 30.15 30.19 10 BR OVC041 None
2018-12-15 02:56 48 42 46 79 240° 5 - 30.17 30.21 10 BR OVC043 None
2018-12-15 02:07 47 43 44 86 240° 6 - 30.17 - 10 BR SCT012 BKN046 BKN080 None
2018-12-15 01:56 48 43 45 82 240° 6 - 30.17 30.21 10 BR BKN013 BKN050 BKN080 None
2018-12-15 00:56 47 43 41 86 210° 13 - 30.17 30.21 10 BR BKN012 OVC060 6-hr Precip Total (1am): 0.00"
6-hr Min Temp (1am): 42.1°F
6-hr Max Temp (1am): 46.9°F
2018-12-15 00:27 47 42 42 83 210° 12 - 30.18 - 10 BR BKN012 OVC070 None
2018-12-15 00:04 45 41 39 85 210° 12 - 30.19 - 10 BR SCT010 BKN065 BKN080 None
2018-12-14 23:56 45 41 39 85 200° 12 - 30.18 30.23 10 BR BKN010 BKN065 OVC080 1-hr Precip Total: Trace
24-hr Min Temp (12am): 21.0°F
24-hr Max Temp (12am): 46.9°F
2018-12-14 23:52 45 41 39 87 200° 12 - 30.19 - 10 -RA BR BKN010 BKN060 OVC080 1-hr Precip Total: Trace
2018-12-14 22:56 44 40 40 85 210° 8 - 30.23 30.27 6 BR OVC007 None

Support USWX by starting your Amazon purchase here.